sensor_id;sensor_type;location;lat;lon;timestamp;temperature;humidity
65598;SHT31;52267;51.984;20.956;2022-11-20T00:01:21;-5.86;80.49
65598;SHT31;52267;51.984;20.956;2022-11-20T00:03:50;-5.90;80.76
65598;SHT31;52267;51.984;20.956;2022-11-20T00:06:20;-5.90;80.77
65598;SHT31;52267;51.984;20.956;2022-11-20T00:08:48;-5.91;81.03
65598;SHT31;52267;51.984;20.956;2022-11-20T00:11:16;-5.91;81.14
65598;SHT31;52267;51.984;20.956;2022-11-20T00:13:49;-5.91;81.20
65598;SHT31;52267;51.984;20.956;2022-11-20T00:16:20;-5.91;81.17
65598;SHT31;52267;51.984;20.956;2022-11-20T00:18:49;-5.90;81.01
65598;SHT31;52267;51.984;20.956;2022-11-20T00:21:18;-5.87;80.96
65598;SHT31;52267;51.984;20.956;2022-11-20T00:23:50;-5.86;80.90
65598;SHT31;52267;51.984;20.956;2022-11-20T00:26:21;-5.90;80.96
65598;SHT31;52267;51.984;20.956;2022-11-20T00:28:51;-5.95;81.05
65598;SHT31;52267;51.984;20.956;2022-11-20T00:31:21;-6.00;81.14
65598;SHT31;52267;51.984;20.956;2022-11-20T00:33:48;-6.01;81.22
65598;SHT31;52267;51.984;20.956;2022-11-20T00:36:17;-6.04;81.18
65598;SHT31;52267;51.984;20.956;2022-11-20T00:38:50;-6.02;81.03
65598;SHT31;52267;51.984;20.956;2022-11-20T00:41:18;-6.03;81.15
65598;SHT31;52267;51.984;20.956;2022-11-20T00:43:46;-6.02;81.08
65598;SHT31;52267;51.984;20.956;2022-11-20T00:46:14;-6.04;81.09
65598;SHT31;52267;51.984;20.956;2022-11-20T00:48:44;-6.02;81.04
65598;SHT31;52267;51.984;20.956;2022-11-20T00:51:13;-6.05;81.04
65598;SHT31;52267;51.984;20.956;2022-11-20T00:53:44;-6.10;81.16
65598;SHT31;52267;51.984;20.956;2022-11-20T00:56:12;-6.14;81.44
65598;SHT31;52267;51.984;20.956;2022-11-20T00:58:42;-6.15;81.58
65598;SHT31;52267;51.984;20.956;2022-11-20T01:03:46;-6.20;81.62
65598;SHT31;52267;51.984;20.956;2022-11-20T01:06:19;-6.21;81.64
65598;SHT31;52267;51.984;20.956;2022-11-20T01:08:50;-6.24;81.68
65598;SHT31;52267;51.984;20.956;2022-11-20T01:11:21;-6.21;81.50
65598;SHT31;52267;51.984;20.956;2022-11-20T01:13:51;-6.24;81.38
65598;SHT31;52267;51.984;20.956;2022-11-20T01:16:23;-6.26;81.33
65598;SHT31;52267;51.984;20.956;2022-11-20T01:18:54;-6.29;81.36
65598;SHT31;52267;51.984;20.956;2022-11-20T01:21:30;-6.34;81.43
65598;SHT31;52267;51.984;20.956;2022-11-20T01:24:06;-6.31;81.40
65598;SHT31;52267;51.984;20.956;2022-11-20T01:26:37;-6.33;81.37
65598;SHT31;52267;51.984;20.956;2022-11-20T01:29:06;-6.40;81.78
65598;SHT31;52267;51.984;20.956;2022-11-20T01:31:37;-6.40;81.81
65598;SHT31;52267;51.984;20.956;2022-11-20T01:34:05;-6.39;81.90
65598;SHT31;52267;51.984;20.956;2022-11-20T01:36:36;-6.42;82.24
65598;SHT31;52267;51.984;20.956;2022-11-20T01:39:10;-6.43;82.32
65598;SHT31;52267;51.984;20.956;2022-11-20T01:41:40;-6.36;82.11
65598;SHT31;52267;51.984;20.956;2022-11-20T01:50:18;-6.02;81.38
65598;SHT31;52267;51.984;20.956;2022-11-20T01:52:53;-5.89;81.26
65598;SHT31;52267;51.984;20.956;2022-11-20T01:55:30;-5.71;81.05
65598;SHT31;52267;51.984;20.956;2022-11-20T01:58:01;-5.59;80.88
65598;SHT31;52267;51.984;20.956;2022-11-20T02:00:30;-5.53;80.89
65598;SHT31;52267;51.984;20.956;2022-11-20T02:02:58;-5.49;80.86
65598;SHT31;52267;51.984;20.956;2022-11-20T02:05:34;-5.47;80.92
65598;SHT31;52267;51.984;20.956;2022-11-20T02:08:06;-5.37;80.90
65598;SHT31;52267;51.984;20.956;2022-11-20T02:10:33;-5.33;80.97
65598;SHT31;52267;51.984;20.956;2022-11-20T02:13:01;-5.32;81.10
65598;SHT31;52267;51.984;20.956;2022-11-20T02:15:48;-5.29;81.17
65598;SHT31;52267;51.984;20.956;2022-11-20T02:18:16;-5.23;81.21
65598;SHT31;52267;51.984;20.956;2022-11-20T02:20:46;-5.17;81.12
65598;SHT31;52267;51.984;20.956;2022-11-20T02:23:23;-5.13;81.16
65598;SHT31;52267;51.984;20.956;2022-11-20T02:26:28;-5.11;81.24
65598;SHT31;52267;51.984;20.956;2022-11-20T02:29:01;-5.13;81.29
65598;SHT31;52267;51.984;20.956;2022-11-20T02:31:34;-5.05;81.15
65598;SHT31;52267;51.984;20.956;2022-11-20T02:34:04;-4.98;81.01
65598;SHT31;52267;51.984;20.956;2022-11-20T02:36:32;-4.99;80.97
65598;SHT31;52267;51.984;20.956;2022-11-20T02:39:02;-4.90;80.98
65598;SHT31;52267;51.984;20.956;2022-11-20T02:41:39;-4.76;80.82
65598;SHT31;52267;51.984;20.956;2022-11-20T02:44:06;-4.66;80.66
65598;SHT31;52267;51.984;20.956;2022-11-20T02:46:34;-4.69;80.56
65598;SHT31;52267;51.984;20.956;2022-11-20T02:49:02;-4.65;80.57
65598;SHT31;52267;51.984;20.956;2022-11-20T02:51:30;-4.75;80.48
65598;SHT31;52267;51.984;20.956;2022-11-20T02:53:58;-4.76;80.60
65598;SHT31;52267;51.984;20.956;2022-11-20T02:56:25;-4.88;80.52
65598;SHT31;52267;51.984;20.956;2022-11-20T02:58:53;-4.95;80.71
65598;SHT31;52267;51.984;20.956;2022-11-20T03:01:20;-4.99;80.79
65598;SHT31;52267;51.984;20.956;2022-11-20T03:03:47;-4.93;80.71
65598;SHT31;52267;51.984;20.956;2022-11-20T03:06:18;-5.05;80.70
65598;SHT31;52267;51.984;20.956;2022-11-20T03:08:45;-5.08;80.80
65598;SHT31;52267;51.984;20.956;2022-11-20T03:11:12;-5.14;80.84
65598;SHT31;52267;51.984;20.956;2022-11-20T03:13:40;-5.11;80.90
65598;SHT31;52267;51.984;20.956;2022-11-20T03:16:07;-5.10;80.83
65598;SHT31;52267;51.984;20.956;2022-11-20T03:18:38;-5.03;80.71
65598;SHT31;52267;51.984;20.956;2022-11-20T03:21:06;-5.01;80.59
65598;SHT31;52267;51.984;20.956;2022-11-20T03:23:35;-5.07;80.60
65598;SHT31;52267;51.984;20.956;2022-11-20T03:26:19;-5.04;80.63
65598;SHT31;52267;51.984;20.956;2022-11-20T03:28:51;-5.12;80.50
65598;SHT31;52267;51.984;20.956;2022-11-20T03:31:25;-5.26;80.64
65598;SHT31;52267;51.984;20.956;2022-11-20T03:34:07;-5.40;80.92
65598;SHT31;52267;51.984;20.956;2022-11-20T03:36:39;-5.27;80.90
65598;SHT31;52267;51.984;20.956;2022-11-20T03:39:08;-5.17;80.73
65598;SHT31;52267;51.984;20.956;2022-11-20T03:41:36;-5.09;80.51
65598;SHT31;52267;51.984;20.956;2022-11-20T03:44:06;-5.16;80.45
65598;SHT31;52267;51.984;20.956;2022-11-20T03:46:36;-5.15;80.54
65598;SHT31;52267;51.984;20.956;2022-11-20T03:49:03;-5.17;80.44
65598;SHT31;52267;51.984;20.956;2022-11-20T03:51:32;-5.24;80.58
65598;SHT31;52267;51.984;20.956;2022-11-20T03:54:02;-5.30;80.66
65598;SHT31;52267;51.984;20.956;2022-11-20T03:56:35;-5.40;80.77
65598;SHT31;52267;51.984;20.956;2022-11-20T03:59:05;-5.54;80.93
65598;SHT31;52267;51.984;20.956;2022-11-20T04:01:34;-5.64;81.14
65598;SHT31;52267;51.984;20.956;2022-11-20T04:04:03;-5.69;81.43
65598;SHT31;52267;51.984;20.956;2022-11-20T04:06:35;-5.67;81.41
65598;SHT31;52267;51.984;20.956;2022-11-20T04:09:04;-5.71;81.48
65598;SHT31;52267;51.984;20.956;2022-11-20T04:11:36;-5.74;81.69
65598;SHT31;52267;51.984;20.956;2022-11-20T04:14:06;-5.73;81.73
65598;SHT31;52267;51.984;20.956;2022-11-20T04:16:39;-5.78;81.83
65598;SHT31;52267;51.984;20.956;2022-11-20T04:19:11;-5.74;81.76
65598;SHT31;52267;51.984;20.956;2022-11-20T04:21:41;-5.71;81.60
65598;SHT31;52267;51.984;20.956;2022-11-20T04:24:10;-5.72;81.59
65598;SHT31;52267;51.984;20.956;2022-11-20T04:26:37;-5.71;81.51
65598;SHT31;52267;51.984;20.956;2022-11-20T04:29:05;-5.80;81.71
65598;SHT31;52267;51.984;20.956;2022-11-20T04:31:33;-5.84;81.81
65598;SHT31;52267;51.984;20.956;2022-11-20T04:34:04;-5.89;81.86
65598;SHT31;52267;51.984;20.956;2022-11-20T04:36:33;-5.97;82.22
65598;SHT31;52267;51.984;20.956;2022-11-20T04:39:02;-6.05;82.33
65598;SHT31;52267;51.984;20.956;2022-11-20T04:41:33;-6.04;82.31
65598;SHT31;52267;51.984;20.956;2022-11-20T04:44:03;-6.09;82.46
65598;SHT31;52267;51.984;20.956;2022-11-20T04:46:41;-6.11;82.58
65598;SHT31;52267;51.984;20.956;2022-11-20T04:49:10;-6.11;82.62
65598;SHT31;52267;51.984;20.956;2022-11-20T04:51:38;-6.10;82.53
65598;SHT31;52267;51.984;20.956;2022-11-20T04:54:05;-6.12;82.58
65598;SHT31;52267;51.984;20.956;2022-11-20T04:56:32;-6.18;82.69
65598;SHT31;52267;51.984;20.956;2022-11-20T04:59:02;-6.23;82.96
65598;SHT31;52267;51.984;20.956;2022-11-20T05:01:29;-6.23;82.96
65598;SHT31;52267;51.984;20.956;2022-11-20T05:03:56;-6.28;83.14
65598;SHT31;52267;51.984;20.956;2022-11-20T05:06:23;-6.27;83.13
65598;SHT31;52267;51.984;20.956;2022-11-20T05:08:50;-6.28;83.25
65598;SHT31;52267;51.984;20.956;2022-11-20T05:11:19;-6.28;83.23
65598;SHT31;52267;51.984;20.956;2022-11-20T05:13:47;-6.27;83.08
65598;SHT31;52267;51.984;20.956;2022-11-20T05:16:17;-6.24;82.92
65598;SHT31;52267;51.984;20.956;2022-11-20T05:18:50;-6.26;82.81
65598;SHT31;52267;51.984;20.956;2022-11-20T05:21:19;-6.26;82.95
65598;SHT31;52267;51.984;20.956;2022-11-20T05:23:46;-6.27;83.02
65598;SHT31;52267;51.984;20.956;2022-11-20T05:26:20;-6.37;83.28
65598;SHT31;52267;51.984;20.956;2022-11-20T05:28:49;-6.34;83.05
65598;SHT31;52267;51.984;20.956;2022-11-20T05:31:18;-6.34;82.92
65598;SHT31;52267;51.984;20.956;2022-11-20T05:33:47;-6.30;82.81
65598;SHT31;52267;51.984;20.956;2022-11-20T05:36:14;-6.32;82.79
65598;SHT31;52267;51.984;20.956;2022-11-20T05:38:42;-6.35;82.98
65598;SHT31;52267;51.984;20.956;2022-11-20T05:41:11;-6.28;82.77
65598;SHT31;52267;51.984;20.956;2022-11-20T05:43:43;-6.25;82.61
65598;SHT31;52267;51.984;20.956;2022-11-20T05:46:14;-6.28;82.56
65598;SHT31;52267;51.984;20.956;2022-11-20T05:48:43;-6.31;82.60
65598;SHT31;52267;51.984;20.956;2022-11-20T05:51:11;-6.30;82.68
65598;SHT31;52267;51.984;20.956;2022-11-20T05:53:42;-6.34;82.85
65598;SHT31;52267;51.984;20.956;2022-11-20T05:56:10;-6.38;83.02
65598;SHT31;52267;51.984;20.956;2022-11-20T05:58:43;-6.38;83.00
65598;SHT31;52267;51.984;20.956;2022-11-20T06:01:18;-6.34;82.81
65598;SHT31;52267;51.984;20.956;2022-11-20T06:03:49;-6.35;82.77
65598;SHT31;52267;51.984;20.956;2022-11-20T06:06:17;-6.34;82.70
65598;SHT31;52267;51.984;20.956;2022-11-20T06:08:45;-6.32;82.68
65598;SHT31;52267;51.984;20.956;2022-11-20T06:11:12;-6.33;82.60
65598;SHT31;52267;51.984;20.956;2022-11-20T06:13:41;-6.41;82.74
65598;SHT31;52267;51.984;20.956;2022-11-20T06:16:09;-6.42;82.81
65598;SHT31;52267;51.984;20.956;2022-11-20T06:18:37;-6.32;82.65
65598;SHT31;52267;51.984;20.956;2022-11-20T06:21:06;-6.32;82.60
65598;SHT31;52267;51.984;20.956;2022-11-20T06:23:36;-6.38;82.60
65598;SHT31;52267;51.984;20.956;2022-11-20T06:26:07;-6.45;82.74
65598;SHT31;52267;51.984;20.956;2022-11-20T06:28:37;-6.48;82.89
65598;SHT31;52267;51.984;20.956;2022-11-20T06:31:05;-6.49;82.94
65598;SHT31;52267;51.984;20.956;2022-11-20T06:33:33;-6.45;82.89
65598;SHT31;52267;51.984;20.956;2022-11-20T06:36:00;-6.42;82.84
65598;SHT31;52267;51.984;20.956;2022-11-20T06:38:28;-6.39;82.80
65598;SHT31;52267;51.984;20.956;2022-11-20T06:40:55;-6.34;82.69
65598;SHT31;52267;51.984;20.956;2022-11-20T06:43:23;-6.33;82.70
65598;SHT31;52267;51.984;20.956;2022-11-20T06:45:55;-6.32;82.81
65598;SHT31;52267;51.984;20.956;2022-11-20T06:48:24;-6.31;82.98
65598;SHT31;52267;51.984;20.956;2022-11-20T06:50:53;-6.27;82.90
65598;SHT31;52267;51.984;20.956;2022-11-20T06:53:21;-6.23;82.94
65598;SHT31;52267;51.984;20.956;2022-11-20T06:55:49;-6.18;82.91
65598;SHT31;52267;51.984;20.956;2022-11-20T06:58:17;-6.13;82.59
65598;SHT31;52267;51.984;20.956;2022-11-20T07:00:44;-6.13;82.74
65598;SHT31;52267;51.984;20.956;2022-11-20T07:03:12;-6.11;82.90
65598;SHT31;52267;51.984;20.956;2022-11-20T07:05:39;-6.06;82.80
65598;SHT31;52267;51.984;20.956;2022-11-20T07:08:06;-6.03;82.71
65598;SHT31;52267;51.984;20.956;2022-11-20T07:10:34;-5.97;82.72
65598;SHT31;52267;51.984;20.956;2022-11-20T07:13:01;-5.89;82.81
65598;SHT31;52267;51.984;20.956;2022-11-20T07:15:29;-5.82;82.77
65598;SHT31;52267;51.984;20.956;2022-11-20T07:17:59;-5.76;82.62
65598;SHT31;52267;51.984;20.956;2022-11-20T07:20:27;-5.72;82.65
65598;SHT31;52267;51.984;20.956;2022-11-20T07:22:54;-5.62;82.60
65598;SHT31;52267;51.984;20.956;2022-11-20T07:25:23;-5.50;82.43
65598;SHT31;52267;51.984;20.956;2022-11-20T07:27:52;-5.42;82.27
65598;SHT31;52267;51.984;20.956;2022-11-20T07:30:19;-5.25;82.21
65598;SHT31;52267;51.984;20.956;2022-11-20T07:32:46;-5.10;82.02
65598;SHT31;52267;51.984;20.956;2022-11-20T07:35:17;-5.05;81.90
65598;SHT31;52267;51.984;20.956;2022-11-20T07:37:45;-4.98;81.90
65598;SHT31;52267;51.984;20.956;2022-11-20T07:40:13;-4.97;82.00
65598;SHT31;52267;51.984;20.956;2022-11-20T07:42:48;-4.98;82.24
65598;SHT31;52267;51.984;20.956;2022-11-20T07:45:18;-4.91;82.18
65598;SHT31;52267;51.984;20.956;2022-11-20T07:47:46;-4.80;82.03
65598;SHT31;52267;51.984;20.956;2022-11-20T07:50:13;-4.77;82.01
65598;SHT31;52267;51.984;20.956;2022-11-20T07:52:40;-4.72;82.16
65598;SHT31;52267;51.984;20.956;2022-11-20T07:55:08;-4.63;81.92
65598;SHT31;52267;51.984;20.956;2022-11-20T07:57:36;-4.57;81.83
65598;SHT31;52267;51.984;20.956;2022-11-20T08:00:03;-4.50;81.80
65598;SHT31;52267;51.984;20.956;2022-11-20T08:02:37;-4.49;81.84
65598;SHT31;52267;51.984;20.956;2022-11-20T08:05:08;-4.45;81.82
65598;SHT31;52267;51.984;20.956;2022-11-20T08:07:37;-4.42;82.05
65598;SHT31;52267;51.984;20.956;2022-11-20T08:10:10;-4.35;82.06
65598;SHT31;52267;51.984;20.956;2022-11-20T08:12:43;-4.25;81.70
65598;SHT31;52267;51.984;20.956;2022-11-20T08:15:33;-4.12;81.67
65598;SHT31;52267;51.984;20.956;2022-11-20T08:20:37;-3.98;81.54
65598;SHT31;52267;51.984;20.956;2022-11-20T08:23:05;-3.91;81.49
65598;SHT31;52267;51.984;20.956;2022-11-20T08:25:34;-3.82;81.48
65598;SHT31;52267;51.984;20.956;2022-11-20T08:28:04;-3.74;81.59
65598;SHT31;52267;51.984;20.956;2022-11-20T08:30:34;-3.56;81.45
65598;SHT31;52267;51.984;20.956;2022-11-20T08:33:03;-3.43;81.29
65598;SHT31;52267;51.984;20.956;2022-11-20T08:35:37;-3.34;81.26
65598;SHT31;52267;51.984;20.956;2022-11-20T08:38:05;-3.28;81.16
65598;SHT31;52267;51.984;20.956;2022-11-20T08:40:32;-3.24;81.24
65598;SHT31;52267;51.984;20.956;2022-11-20T08:43:00;-3.11;81.27
65598;SHT31;52267;51.984;20.956;2022-11-20T08:45:27;-3.00;81.18
65598;SHT31;52267;51.984;20.956;2022-11-20T08:47:59;-2.89;81.06
65598;SHT31;52267;51.984;20.956;2022-11-20T08:50:27;-2.69;80.93
65598;SHT31;52267;51.984;20.956;2022-11-20T08:52:54;-2.55;80.68
65598;SHT31;52267;51.984;20.956;2022-11-20T08:55:21;-2.42;80.39
65598;SHT31;52267;51.984;20.956;2022-11-20T08:57:48;-2.25;79.91
65598;SHT31;52267;51.984;20.956;2022-11-20T09:00:15;-2.14;79.26
65598;SHT31;52267;51.984;20.956;2022-11-20T09:02:43;-1.93;79.35
65598;SHT31;52267;51.984;20.956;2022-11-20T09:05:10;-1.71;78.88
65598;SHT31;52267;51.984;20.956;2022-11-20T09:07:37;-1.54;78.67
65598;SHT31;52267;51.984;20.956;2022-11-20T09:10:04;-1.40;78.39
65598;SHT31;52267;51.984;20.956;2022-11-20T09:12:31;-1.25;78.19
65598;SHT31;52267;51.984;20.956;2022-11-20T09:14:59;-1.08;77.97
65598;SHT31;52267;51.984;20.956;2022-11-20T09:17:26;-1.03;77.96
65598;SHT31;52267;51.984;20.956;2022-11-20T09:19:53;-0.93;77.73
65598;SHT31;52267;51.984;20.956;2022-11-20T09:22:20;-0.91;77.70
65598;SHT31;52267;51.984;20.956;2022-11-20T09:24:48;-0.89;77.42
65598;SHT31;52267;51.984;20.956;2022-11-20T09:27:15;-0.81;77.19
65598;SHT31;52267;51.984;20.956;2022-11-20T09:29:47;-0.76;76.76
65598;SHT31;52267;51.984;20.956;2022-11-20T09:32:15;-0.70;77.07
65598;SHT31;52267;51.984;20.956;2022-11-20T09:34:42;-0.69;77.00
65598;SHT31;52267;51.984;20.956;2022-11-20T09:37:09;-0.57;76.51
65598;SHT31;52267;51.984;20.956;2022-11-20T09:39:36;-0.43;76.22
65598;SHT31;52267;51.984;20.956;2022-11-20T09:42:14;-0.46;75.85
65598;SHT31;52267;51.984;20.956;2022-11-20T09:48:12;-0.30;76.19
65598;SHT31;52267;51.984;20.956;2022-11-20T09:50:42;-0.05;76.22
65598;SHT31;52267;51.984;20.956;2022-11-20T09:56:12;0.11;74.44
65598;SHT31;52267;51.984;20.956;2022-11-20T09:58:41;0.15;74.96
65598;SHT31;52267;51.984;20.956;2022-11-20T10:01:14;0.15;75.03
65598;SHT31;52267;51.984;20.956;2022-11-20T10:06:31;0.24;74.39
65598;SHT31;52267;51.984;20.956;2022-11-20T10:20:39;1.28;73.38
65598;SHT31;52267;51.984;20.956;2022-11-20T10:29:17;1.88;71.85
65598;SHT31;52267;51.984;20.956;2022-11-20T10:31:53;2.20;71.59
65598;SHT31;52267;51.984;20.956;2022-11-20T10:34:26;2.29;71.67
65598;SHT31;52267;51.984;20.956;2022-11-20T10:37:23;2.12;70.30
65598;SHT31;52267;51.984;20.956;2022-11-20T10:39:51;1.94;69.22
65598;SHT31;52267;51.984;20.956;2022-11-20T10:42:46;1.80;70.93
65598;SHT31;52267;51.984;20.956;2022-11-20T10:47:56;1.76;71.72
65598;SHT31;52267;51.984;20.956;2022-11-20T10:50:35;1.93;71.28
65598;SHT31;52267;51.984;20.956;2022-11-20T10:53:16;2.06;71.12
65598;SHT31;52267;51.984;20.956;2022-11-20T10:55:55;1.90;70.13
65598;SHT31;52267;51.984;20.956;2022-11-20T10:59:05;1.90;70.92
65598;SHT31;52267;51.984;20.956;2022-11-20T11:02:00;1.89;69.98
65598;SHT31;52267;51.984;20.956;2022-11-20T11:04:35;1.92;70.98
65598;SHT31;52267;51.984;20.956;2022-11-20T11:07:13;1.99;71.43
65598;SHT31;52267;51.984;20.956;2022-11-20T11:09:47;2.15;71.20
65598;SHT31;52267;51.984;20.956;2022-11-20T11:12:20;2.25;70.18
65598;SHT31;52267;51.984;20.956;2022-11-20T11:14:53;2.32;69.65
65598;SHT31;52267;51.984;20.956;2022-11-20T11:17:28;2.49;69.22
65598;SHT31;52267;51.984;20.956;2022-11-20T11:19:59;2.47;69.61
65598;SHT31;52267;51.984;20.956;2022-11-20T11:22:50;2.40;68.85
65598;SHT31;52267;51.984;20.956;2022-11-20T11:25:30;2.33;69.77
65598;SHT31;52267;51.984;20.956;2022-11-20T11:28:04;2.24;70.64
65598;SHT31;52267;51.984;20.956;2022-11-20T11:30:47;2.19;70.84
65598;SHT31;52267;51.984;20.956;2022-11-20T11:33:24;2.08;69.58
65598;SHT31;52267;51.984;20.956;2022-11-20T11:36:00;2.05;70.32
65598;SHT31;52267;51.984;20.956;2022-11-20T11:41:06;1.97;70.16
65598;SHT31;52267;51.984;20.956;2022-11-20T11:43:38;1.94;70.20
65598;SHT31;52267;51.984;20.956;2022-11-20T11:49:20;2.26;70.86
65598;SHT31;52267;51.984;20.956;2022-11-20T11:51:54;2.27;69.84
65598;SHT31;52267;51.984;20.956;2022-11-20T11:54:34;2.20;69.94
65598;SHT31;52267;51.984;20.956;2022-11-20T12:00:09;2.10;69.62
65598;SHT31;52267;51.984;20.956;2022-11-20T12:05:21;2.13;69.44
65598;SHT31;52267;51.984;20.956;2022-11-20T12:07:53;2.11;68.77
65598;SHT31;52267;51.984;20.956;2022-11-20T12:13:04;2.05;69.94
65598;SHT31;52267;51.984;20.956;2022-11-20T12:15:42;2.03;70.29
65598;SHT31;52267;51.984;20.956;2022-11-20T12:18:22;2.02;70.53
65598;SHT31;52267;51.984;20.956;2022-11-20T12:23:44;1.72;70.27
65598;SHT31;52267;51.984;20.956;2022-11-20T12:29:08;1.55;70.55
65598;SHT31;52267;51.984;20.956;2022-11-20T12:37:51;1.30;71.17
65598;SHT31;52267;51.984;20.956;2022-11-20T12:40:34;1.26;71.56
65598;SHT31;52267;51.984;20.956;2022-11-20T12:43:34;1.24;71.35
65598;SHT31;52267;51.984;20.956;2022-11-20T12:47:24;1.23;71.63
65598;SHT31;52267;51.984;20.956;2022-11-20T12:49:55;1.17;71.41
65598;SHT31;52267;51.984;20.956;2022-11-20T12:52:37;1.17;71.88
65598;SHT31;52267;51.984;20.956;2022-11-20T12:57:58;1.09;72.09
65598;SHT31;52267;51.984;20.956;2022-11-20T13:01:05;1.10;72.22
65598;SHT31;52267;51.984;20.956;2022-11-20T13:06:47;1.02;72.25
65598;SHT31;52267;51.984;20.956;2022-11-20T13:09:15;1.02;72.40
65598;SHT31;52267;51.984;20.956;2022-11-20T13:14:38;0.96;72.16
65598;SHT31;52267;51.984;20.956;2022-11-20T13:19:58;0.91;72.35
65598;SHT31;52267;51.984;20.956;2022-11-20T13:25:21;0.79;72.14
65598;SHT31;52267;51.984;20.956;2022-11-20T13:27:51;0.77;72.42
65598;SHT31;52267;51.984;20.956;2022-11-20T13:30:20;0.74;72.64
65598;SHT31;52267;51.984;20.956;2022-11-20T13:35:33;0.70;72.97
65598;SHT31;52267;51.984;20.956;2022-11-20T13:38:12;0.67;72.87
65598;SHT31;52267;51.984;20.956;2022-11-20T13:43:34;0.61;72.67
65598;SHT31;52267;51.984;20.956;2022-11-20T13:46:06;0.58;72.78
65598;SHT31;52267;51.984;20.956;2022-11-20T13:48:39;0.57;72.93
65598;SHT31;52267;51.984;20.956;2022-11-20T13:51:15;0.56;72.93
65598;SHT31;52267;51.984;20.956;2022-11-20T13:53:54;0.54;72.92
65598;SHT31;52267;51.984;20.956;2022-11-20T13:59:29;0.42;72.98
65598;SHT31;52267;51.984;20.956;2022-11-20T14:02:51;0.39;73.05
65598;SHT31;52267;51.984;20.956;2022-11-20T14:04:57;0.35;73.23
65598;SHT31;52267;51.984;20.956;2022-11-20T14:07:27;0.30;73.40
65598;SHT31;52267;51.984;20.956;2022-11-20T14:10:03;0.24;73.49
65598;SHT31;52267;51.984;20.956;2022-11-20T14:12:32;0.20;73.67
65598;SHT31;52267;51.984;20.956;2022-11-20T14:15:01;0.12;73.87
65598;SHT31;52267;51.984;20.956;2022-11-20T14:17:32;0.05;74.06
65598;SHT31;52267;51.984;20.956;2022-11-20T14:20:06;-0.00;74.22
65598;SHT31;52267;51.984;20.956;2022-11-20T14:22:39;-0.08;74.37
65598;SHT31;52267;51.984;20.956;2022-11-20T14:27:54;-0.20;74.66
65598;SHT31;52267;51.984;20.956;2022-11-20T14:30:44;-0.28;74.81
65598;SHT31;52267;51.984;20.956;2022-11-20T14:33:14;-0.40;75.07
65598;SHT31;52267;51.984;20.956;2022-11-20T14:35:44;-0.46;75.34
65598;SHT31;52267;51.984;20.956;2022-11-20T14:38:15;-0.54;75.70
65598;SHT31;52267;51.984;20.956;2022-11-20T14:40:45;-0.62;75.84
65598;SHT31;52267;51.984;20.956;2022-11-20T14:43:17;-0.68;76.48
65598;SHT31;52267;51.984;20.956;2022-11-20T14:45:58;-0.77;77.19
65598;SHT31;52267;51.984;20.956;2022-11-20T14:48:39;-0.85;77.50
65598;SHT31;52267;51.984;20.956;2022-11-20T14:51:32;-0.91;78.09
65598;SHT31;52267;51.984;20.956;2022-11-20T14:54:09;-1.01;78.11
65598;SHT31;52267;51.984;20.956;2022-11-20T14:56:42;-1.10;79.24
65598;SHT31;52267;51.984;20.956;2022-11-20T14:59:31;-1.19;79.80
65598;SHT31;52267;51.984;20.956;2022-11-20T15:02:01;-1.27;79.54
65598;SHT31;52267;51.984;20.956;2022-11-20T15:04:32;-1.35;79.55
65598;SHT31;52267;51.984;20.956;2022-11-20T15:07:00;-1.43;79.35
65598;SHT31;52267;51.984;20.956;2022-11-20T15:09:28;-1.50;80.20
65598;SHT31;52267;51.984;20.956;2022-11-20T15:11:55;-1.55;80.95
65598;SHT31;52267;51.984;20.956;2022-11-20T15:14:26;-1.61;81.52
65598;SHT31;52267;51.984;20.956;2022-11-20T15:16:55;-1.66;81.31
65598;SHT31;52267;51.984;20.956;2022-11-20T15:19:23;-1.70;81.10
65598;SHT31;52267;51.984;20.956;2022-11-20T15:21:56;-1.75;81.62
65598;SHT31;52267;51.984;20.956;2022-11-20T15:24:23;-1.77;81.35
65598;SHT31;52267;51.984;20.956;2022-11-20T15:26:51;-1.82;81.25
65598;SHT31;52267;51.984;20.956;2022-11-20T15:29:19;-1.85;81.72
65598;SHT31;52267;51.984;20.956;2022-11-20T15:31:48;-1.87;81.50
65598;SHT31;52267;51.984;20.956;2022-11-20T15:34:18;-1.89;81.45
65598;SHT31;52267;51.984;20.956;2022-11-20T15:36:45;-1.93;81.58
65598;SHT31;52267;51.984;20.956;2022-11-20T15:39:13;-1.98;81.86
65598;SHT31;52267;51.984;20.956;2022-11-20T15:41:40;-2.02;81.93
65598;SHT31;52267;51.984;20.956;2022-11-20T15:44:07;-2.08;82.60
65598;SHT31;52267;51.984;20.956;2022-11-20T15:46:39;-2.10;82.31
65598;SHT31;52267;51.984;20.956;2022-11-20T15:49:14;-2.13;82.04
65598;SHT31;52267;51.984;20.956;2022-11-20T15:51:48;-2.18;82.50
65598;SHT31;52267;51.984;20.956;2022-11-20T15:54:18;-2.22;82.17
65598;SHT31;52267;51.984;20.956;2022-11-20T15:56:48;-2.26;82.22
65598;SHT31;52267;51.984;20.956;2022-11-20T15:59:19;-2.31;82.31
65598;SHT31;52267;51.984;20.956;2022-11-20T16:01:47;-2.35;82.60
65598;SHT31;52267;51.984;20.956;2022-11-20T16:04:15;-2.39;82.78
65598;SHT31;52267;51.984;20.956;2022-11-20T16:06:48;-2.42;82.82
65598;SHT31;52267;51.984;20.956;2022-11-20T16:09:16;-2.44;82.54
65598;SHT31;52267;51.984;20.956;2022-11-20T16:11:43;-2.47;82.54
65598;SHT31;52267;51.984;20.956;2022-11-20T16:14:10;-2.50;82.82
65598;SHT31;52267;51.984;20.956;2022-11-20T16:16:57;-2.56;83.09
65598;SHT31;52267;51.984;20.956;2022-11-20T16:19:24;-2.58;83.21
65598;SHT31;52267;51.984;20.956;2022-11-20T16:21:51;-2.61;83.37
65598;SHT31;52267;51.984;20.956;2022-11-20T16:24:18;-2.62;83.80
65598;SHT31;52267;51.984;20.956;2022-11-20T16:26:46;-2.63;83.33
65598;SHT31;52267;51.984;20.956;2022-11-20T16:29:14;-2.64;83.04
65598;SHT31;52267;51.984;20.956;2022-11-20T16:31:49;-2.66;83.13
65598;SHT31;52267;51.984;20.956;2022-11-20T16:34:16;-2.66;83.19
65598;SHT31;52267;51.984;20.956;2022-11-20T16:36:45;-2.70;83.33
65598;SHT31;52267;51.984;20.956;2022-11-20T16:39:13;-2.74;83.43
65598;SHT31;52267;51.984;20.956;2022-11-20T16:41:41;-2.78;83.31
65598;SHT31;52267;51.984;20.956;2022-11-20T16:44:09;-2.79;82.91
65598;SHT31;52267;51.984;20.956;2022-11-20T16:46:37;-2.79;82.93
65598;SHT31;52267;51.984;20.956;2022-11-20T16:49:10;-2.84;83.32
65598;SHT31;52267;51.984;20.956;2022-11-20T16:51:40;-2.90;83.42
65598;SHT31;52267;51.984;20.956;2022-11-20T16:54:09;-2.95;83.43
65598;SHT31;52267;51.984;20.956;2022-11-20T16:56:36;-2.98;83.57
65598;SHT31;52267;51.984;20.956;2022-11-20T16:59:05;-3.00;83.89
65598;SHT31;52267;51.984;20.956;2022-11-20T17:01:33;-3.02;83.70
65598;SHT31;52267;51.984;20.956;2022-11-20T17:04:04;-3.07;83.91
65598;SHT31;52267;51.984;20.956;2022-11-20T17:06:33;-3.11;83.92
65598;SHT31;52267;51.984;20.956;2022-11-20T17:09:03;-3.14;83.95
65598;SHT31;52267;51.984;20.956;2022-11-20T17:11:31;-3.15;83.73
65598;SHT31;52267;51.984;20.956;2022-11-20T17:14:00;-3.15;83.71
65598;SHT31;52267;51.984;20.956;2022-11-20T17:16:34;-3.18;83.81
65598;SHT31;52267;51.984;20.956;2022-11-20T17:19:02;-3.22;83.99